sensor_id;sensor_type;location;lat;lon;timestamp;temperature;humidity
37446;DHT22;23307;51.136;14.942;2023-08-17T00:02:15;22.80;99.90
37446;DHT22;23307;51.136;14.942;2023-08-17T00:04:40;22.80;99.90
37446;DHT22;23307;51.136;14.942;2023-08-17T00:07:06;22.80;99.90
37446;DHT22;23307;51.136;14.942;2023-08-17T00:09:32;22.80;99.90
37446;DHT22;23307;51.136;14.942;2023-08-17T00:11:58;22.70;99.90
37446;DHT22;23307;51.136;14.942;2023-08-17T00:14:24;22.70;99.90
37446;DHT22;23307;51.136;14.942;2023-08-17T00:16:50;22.70;99.90
37446;DHT22;23307;51.136;14.942;2023-08-17T00:19:16;22.70;99.90
37446;DHT22;23307;51.136;14.942;2023-08-17T00:21:43;22.70;99.90
37446;DHT22;23307;51.136;14.942;2023-08-17T00:24:09;22.70;99.90
37446;DHT22;23307;51.136;14.942;2023-08-17T00:26:34;22.80;99.90
37446;DHT22;23307;51.136;14.942;2023-08-17T00:29:00;22.80;99.90
37446;DHT22;23307;51.136;14.942;2023-08-17T00:31:25;22.90;99.90
37446;DHT22;23307;51.136;14.942;2023-08-17T00:33:51;22.90;99.90
37446;DHT22;23307;51.136;14.942;2023-08-17T00:36:16;22.90;99.90
37446;DHT22;23307;51.136;14.942;2023-08-17T00:38:42;22.90;99.90
37446;DHT22;23307;51.136;14.942;2023-08-17T00:41:07;22.90;99.90
37446;DHT22;23307;51.136;14.942;2023-08-17T00:43:33;22.80;99.90
37446;DHT22;23307;51.136;14.942;2023-08-17T00:45:59;22.80;99.90
37446;DHT22;23307;51.136;14.942;2023-08-17T00:48:25;22.80;99.90
37446;DHT22;23307;51.136;14.942;2023-08-17T00:50:52;22.80;99.90
37446;DHT22;23307;51.136;14.942;2023-08-17T00:53:19;22.80;99.90
37446;DHT22;23307;51.136;14.942;2023-08-17T00:55:45;22.80;99.90
37446;DHT22;23307;51.136;14.942;2023-08-17T00:58:11;22.80;99.90
37446;DHT22;23307;51.136;14.942;2023-08-17T01:00:37;22.80;99.90
37446;DHT22;23307;51.136;14.942;2023-08-17T01:03:03;22.80;99.90
37446;DHT22;23307;51.136;14.942;2023-08-17T01:05:29;22.80;99.90
37446;DHT22;23307;51.136;14.942;2023-08-17T01:07:56;22.80;99.90
37446;DHT22;23307;51.136;14.942;2023-08-17T01:10:22;22.80;99.90
37446;DHT22;23307;51.136;14.942;2023-08-17T01:13:21;22.80;99.90
37446;DHT22;23307;51.136;14.942;2023-08-17T01:15:56;22.80;99.90
37446;DHT22;23307;51.136;14.942;2023-08-17T01:18:28;22.70;99.90
37446;DHT22;23307;51.136;14.942;2023-08-17T01:20:57;22.70;99.90
37446;DHT22;23307;51.136;14.942;2023-08-17T01:23:22;22.70;99.90
37446;DHT22;23307;51.136;14.942;2023-08-17T01:25:48;22.70;99.90
37446;DHT22;23307;51.136;14.942;2023-08-17T01:28:14;22.70;99.90
37446;DHT22;23307;51.136;14.942;2023-08-17T01:30:46;22.60;99.90
37446;DHT22;23307;51.136;14.942;2023-08-17T01:36:26;22.60;99.90
37446;DHT22;23307;51.136;14.942;2023-08-17T01:38:56;22.50;99.90
37446;DHT22;23307;51.136;14.942;2023-08-17T01:41:23;22.50;99.90
37446;DHT22;23307;51.136;14.942;2023-08-17T01:43:51;22.40;99.90
37446;DHT22;23307;51.136;14.942;2023-08-17T01:46:18;22.40;99.90
37446;DHT22;23307;51.136;14.942;2023-08-17T01:48:44;22.50;99.90
37446;DHT22;23307;51.136;14.942;2023-08-17T01:51:16;22.50;99.90
37446;DHT22;23307;51.136;14.942;2023-08-17T01:53:42;22.40;99.90
37446;DHT22;23307;51.136;14.942;2023-08-17T01:56:07;22.40;99.90
37446;DHT22;23307;51.136;14.942;2023-08-17T01:58:33;22.40;99.90
37446;DHT22;23307;51.136;14.942;2023-08-17T02:00:58;22.40;99.90
37446;DHT22;23307;51.136;14.942;2023-08-17T02:03:24;22.40;99.90
37446;DHT22;23307;51.136;14.942;2023-08-17T02:05:49;22.30;99.90
37446;DHT22;23307;51.136;14.942;2023-08-17T02:08:15;22.30;99.90
37446;DHT22;23307;51.136;14.942;2023-08-17T02:10:40;22.30;99.90
37446;DHT22;23307;51.136;14.942;2023-08-17T02:13:06;22.20;99.90
37446;DHT22;23307;51.136;14.942;2023-08-17T02:15:31;22.20;99.90
37446;DHT22;23307;51.136;14.942;2023-08-17T02:18:00;22.10;99.90
37446;DHT22;23307;51.136;14.942;2023-08-17T02:20:26;22.00;99.90
37446;DHT22;23307;51.136;14.942;2023-08-17T02:22:51;21.90;99.90
37446;DHT22;23307;51.136;14.942;2023-08-17T02:25:17;21.80;99.90
37446;DHT22;23307;51.136;14.942;2023-08-17T02:27:42;21.70;99.90
37446;DHT22;23307;51.136;14.942;2023-08-17T02:30:08;21.70;99.90
37446;DHT22;23307;51.136;14.942;2023-08-17T02:32:34;21.70;99.90
37446;DHT22;23307;51.136;14.942;2023-08-17T02:35:00;21.80;99.90
37446;DHT22;23307;51.136;14.942;2023-08-17T02:37:25;21.80;99.90
37446;DHT22;23307;51.136;14.942;2023-08-17T02:39:51;21.80;99.90
37446;DHT22;23307;51.136;14.942;2023-08-17T02:42:16;21.80;99.90
37446;DHT22;23307;51.136;14.942;2023-08-17T02:44:42;21.80;99.90
37446;DHT22;23307;51.136;14.942;2023-08-17T02:47:07;21.80;99.90
37446;DHT22;23307;51.136;14.942;2023-08-17T02:49:33;21.80;99.90
37446;DHT22;23307;51.136;14.942;2023-08-17T02:51:58;21.80;99.90
37446;DHT22;23307;51.136;14.942;2023-08-17T02:54:24;21.80;99.90
37446;DHT22;23307;51.136;14.942;2023-08-17T02:56:49;21.80;99.90
37446;DHT22;23307;51.136;14.942;2023-08-17T02:59:16;21.70;99.90
37446;DHT22;23307;51.136;14.942;2023-08-17T03:01:41;21.70;99.90
37446;DHT22;23307;51.136;14.942;2023-08-17T03:04:08;21.70;99.90
37446;DHT22;23307;51.136;14.942;2023-08-17T03:06:34;21.70;99.90
37446;DHT22;23307;51.136;14.942;2023-08-17T03:08:59;21.70;99.90
37446;DHT22;23307;51.136;14.942;2023-08-17T03:11:25;21.60;99.90
37446;DHT22;23307;51.136;14.942;2023-08-17T03:13:50;21.60;99.90
37446;DHT22;23307;51.136;14.942;2023-08-17T03:16:16;21.60;99.90
37446;DHT22;23307;51.136;14.942;2023-08-17T03:18:41;21.60;99.90
37446;DHT22;23307;51.136;14.942;2023-08-17T03:21:08;21.60;99.90
37446;DHT22;23307;51.136;14.942;2023-08-17T03:23:33;21.60;99.90
37446;DHT22;23307;51.136;14.942;2023-08-17T03:25:59;21.60;99.90
37446;DHT22;23307;51.136;14.942;2023-08-17T03:28:26;21.60;99.90
37446;DHT22;23307;51.136;14.942;2023-08-17T03:30:55;21.60;99.90
37446;DHT22;23307;51.136;14.942;2023-08-17T03:33:21;21.60;99.90
37446;DHT22;23307;51.136;14.942;2023-08-17T03:35:47;21.60;99.90
37446;DHT22;23307;51.136;14.942;2023-08-17T03:38:12;21.60;99.90
37446;DHT22;23307;51.136;14.942;2023-08-17T03:40:38;21.60;99.90
37446;DHT22;23307;51.136;14.942;2023-08-17T03:43:04;21.60;99.90
37446;DHT22;23307;51.136;14.942;2023-08-17T03:45:30;21.60;99.90
37446;DHT22;23307;51.136;14.942;2023-08-17T03:47:56;21.60;99.90
37446;DHT22;23307;51.136;14.942;2023-08-17T03:50:22;21.70;99.90
37446;DHT22;23307;51.136;14.942;2023-08-17T03:52:47;21.70;99.90
37446;DHT22;23307;51.136;14.942;2023-08-17T03:55:13;21.70;99.90
37446;DHT22;23307;51.136;14.942;2023-08-17T03:57:38;21.70;99.90
37446;DHT22;23307;51.136;14.942;2023-08-17T04:00:05;21.70;99.90
37446;DHT22;23307;51.136;14.942;2023-08-17T04:02:31;21.70;99.90
37446;DHT22;23307;51.136;14.942;2023-08-17T04:04:57;21.80;99.90
37446;DHT22;23307;51.136;14.942;2023-08-17T04:07:23;21.70;99.90
37446;DHT22;23307;51.136;14.942;2023-08-17T04:09:48;21.80;99.90
37446;DHT22;23307;51.136;14.942;2023-08-17T04:12:14;21.80;99.90
37446;DHT22;23307;51.136;14.942;2023-08-17T04:14:40;21.80;99.90
37446;DHT22;23307;51.136;14.942;2023-08-17T04:17:05;21.70;99.90
37446;DHT22;23307;51.136;14.942;2023-08-17T04:19:31;21.70;99.90
37446;DHT22;23307;51.136;14.942;2023-08-17T04:21:57;21.70;99.90
37446;DHT22;23307;51.136;14.942;2023-08-17T04:24:23;21.70;99.90
37446;DHT22;23307;51.136;14.942;2023-08-17T04:26:49;21.70;99.90
37446;DHT22;23307;51.136;14.942;2023-08-17T04:29:15;21.70;99.90
37446;DHT22;23307;51.136;14.942;2023-08-17T04:31:40;21.70;99.90
37446;DHT22;23307;51.136;14.942;2023-08-17T04:34:06;21.70;99.90
37446;DHT22;23307;51.136;14.942;2023-08-17T04:36:32;21.70;99.90
37446;DHT22;23307;51.136;14.942;2023-08-17T04:38:58;21.70;99.90
37446;DHT22;23307;51.136;14.942;2023-08-17T04:41:23;21.70;99.90
37446;DHT22;23307;51.136;14.942;2023-08-17T04:43:49;21.70;99.90
37446;DHT22;23307;51.136;14.942;2023-08-17T04:46:15;21.70;99.90
37446;DHT22;23307;51.136;14.942;2023-08-17T04:48:40;21.70;99.90
37446;DHT22;23307;51.136;14.942;2023-08-17T04:51:06;21.70;99.90
37446;DHT22;23307;51.136;14.942;2023-08-17T04:53:31;21.80;99.90
37446;DHT22;23307;51.136;14.942;2023-08-17T04:55:58;21.80;99.90
37446;DHT22;23307;51.136;14.942;2023-08-17T04:58:24;21.80;99.90
37446;DHT22;23307;51.136;14.942;2023-08-17T05:00:50;21.80;99.90
37446;DHT22;23307;51.136;14.942;2023-08-17T05:03:16;21.80;99.90
37446;DHT22;23307;51.136;14.942;2023-08-17T05:05:41;21.80;99.90
37446;DHT22;23307;51.136;14.942;2023-08-17T05:08:07;21.80;99.90
37446;DHT22;23307;51.136;14.942;2023-08-17T05:10:32;21.80;99.90
37446;DHT22;23307;51.136;14.942;2023-08-17T05:12:58;21.80;99.90
37446;DHT22;23307;51.136;14.942;2023-08-17T05:15:23;21.80;99.90
37446;DHT22;23307;51.136;14.942;2023-08-17T05:17:49;21.80;99.90
37446;DHT22;23307;51.136;14.942;2023-08-17T05:20:14;21.90;99.90
37446;DHT22;23307;51.136;14.942;2023-08-17T05:22:41;21.90;99.90
37446;DHT22;23307;51.136;14.942;2023-08-17T05:25:06;21.90;99.90
37446;DHT22;23307;51.136;14.942;2023-08-17T05:27:32;21.90;99.90
37446;DHT22;23307;51.136;14.942;2023-08-17T05:29:58;22.00;99.90
37446;DHT22;23307;51.136;14.942;2023-08-17T05:32:23;22.10;99.90
37446;DHT22;23307;51.136;14.942;2023-08-17T05:34:49;22.20;99.90
37446;DHT22;23307;51.136;14.942;2023-08-17T05:37:14;22.30;99.90
37446;DHT22;23307;51.136;14.942;2023-08-17T05:39:41;22.40;99.90
37446;DHT22;23307;51.136;14.942;2023-08-17T05:42:06;22.40;99.90
37446;DHT22;23307;51.136;14.942;2023-08-17T05:44:32;22.40;99.90
37446;DHT22;23307;51.136;14.942;2023-08-17T05:46:58;22.50;99.90
37446;DHT22;23307;51.136;14.942;2023-08-17T05:49:23;22.40;99.90
37446;DHT22;23307;51.136;14.942;2023-08-17T05:51:49;22.50;99.90
37446;DHT22;23307;51.136;14.942;2023-08-17T05:54:15;22.50;99.90
37446;DHT22;23307;51.136;14.942;2023-08-17T05:56:40;22.60;99.90
37446;DHT22;23307;51.136;14.942;2023-08-17T05:59:10;22.60;99.90
37446;DHT22;23307;51.136;14.942;2023-08-17T06:01:36;22.70;99.90
37446;DHT22;23307;51.136;14.942;2023-08-17T06:04:01;22.70;99.90
37446;DHT22;23307;51.136;14.942;2023-08-17T06:06:27;22.70;99.90
37446;DHT22;23307;51.136;14.942;2023-08-17T06:08:53;22.70;99.90
37446;DHT22;23307;51.136;14.942;2023-08-17T06:11:18;22.70;99.90
37446;DHT22;23307;51.136;14.942;2023-08-17T06:13:44;22.60;99.90
37446;DHT22;23307;51.136;14.942;2023-08-17T06:16:10;22.70;99.90
37446;DHT22;23307;51.136;14.942;2023-08-17T06:18:36;22.70;99.90
37446;DHT22;23307;51.136;14.942;2023-08-17T06:21:01;22.80;99.90
37446;DHT22;23307;51.136;14.942;2023-08-17T06:23:27;22.70;99.90
37446;DHT22;23307;51.136;14.942;2023-08-17T06:25:56;22.70;99.90
37446;DHT22;23307;51.136;14.942;2023-08-17T06:28:23;22.70;99.90
37446;DHT22;23307;51.136;14.942;2023-08-17T06:30:54;22.60;99.90
37446;DHT22;23307;51.136;14.942;2023-08-17T06:33:21;22.60;99.90
37446;DHT22;23307;51.136;14.942;2023-08-17T06:35:47;22.60;99.90
37446;DHT22;23307;51.136;14.942;2023-08-17T06:38:12;22.60;99.90
37446;DHT22;23307;51.136;14.942;2023-08-17T06:40:38;22.60;99.90
37446;DHT22;23307;51.136;14.942;2023-08-17T06:43:03;22.60;99.90
37446;DHT22;23307;51.136;14.942;2023-08-17T06:45:31;22.60;99.90
37446;DHT22;23307;51.136;14.942;2023-08-17T06:47:57;22.60;99.90
37446;DHT22;23307;51.136;14.942;2023-08-17T06:50:22;22.60;99.90
37446;DHT22;23307;51.136;14.942;2023-08-17T06:52:48;22.60;99.90
37446;DHT22;23307;51.136;14.942;2023-08-17T06:55:13;22.60;99.90
37446;DHT22;23307;51.136;14.942;2023-08-17T06:57:41;22.60;99.90
37446;DHT22;23307;51.136;14.942;2023-08-17T07:00:07;22.50;99.90
37446;DHT22;23307;51.136;14.942;2023-08-17T07:02:33;22.50;99.90
37446;DHT22;23307;51.136;14.942;2023-08-17T07:05:00;22.60;99.90
37446;DHT22;23307;51.136;14.942;2023-08-17T07:07:25;22.60;99.90
37446;DHT22;23307;51.136;14.942;2023-08-17T07:09:51;22.60;99.90
37446;DHT22;23307;51.136;14.942;2023-08-17T07:12:16;22.60;99.90
37446;DHT22;23307;51.136;14.942;2023-08-17T07:14:42;22.60;99.90
37446;DHT22;23307;51.136;14.942;2023-08-17T07:17:07;22.60;99.90
37446;DHT22;23307;51.136;14.942;2023-08-17T07:19:33;22.60;99.90
37446;DHT22;23307;51.136;14.942;2023-08-17T07:21:58;22.60;99.90
37446;DHT22;23307;51.136;14.942;2023-08-17T07:24:24;22.60;99.90
37446;DHT22;23307;51.136;14.942;2023-08-17T07:26:49;22.60;99.90
37446;DHT22;23307;51.136;14.942;2023-08-17T07:29:15;22.70;99.90
37446;DHT22;23307;51.136;14.942;2023-08-17T07:31:41;22.70;99.90
37446;DHT22;23307;51.136;14.942;2023-08-17T07:34:06;22.80;99.90
37446;DHT22;23307;51.136;14.942;2023-08-17T07:36:33;22.90;99.90
37446;DHT22;23307;51.136;14.942;2023-08-17T07:38:59;23.00;99.90
37446;DHT22;23307;51.136;14.942;2023-08-17T07:41:25;23.00;99.90
37446;DHT22;23307;51.136;14.942;2023-08-17T07:43:51;23.10;99.90
37446;DHT22;23307;51.136;14.942;2023-08-17T07:46:16;23.20;99.90
37446;DHT22;23307;51.136;14.942;2023-08-17T07:48:42;23.40;99.90
37446;DHT22;23307;51.136;14.942;2023-08-17T07:51:07;23.50;99.90
37446;DHT22;23307;51.136;14.942;2023-08-17T07:53:33;23.70;99.90
37446;DHT22;23307;51.136;14.942;2023-08-17T07:55:58;23.70;99.90
37446;DHT22;23307;51.136;14.942;2023-08-17T07:58:24;23.90;99.90
37446;DHT22;23307;51.136;14.942;2023-08-17T08:00:49;24.00;99.90
37446;DHT22;23307;51.136;14.942;2023-08-17T08:03:15;24.10;99.90
37446;DHT22;23307;51.136;14.942;2023-08-17T08:05:40;24.10;99.90
37446;DHT22;23307;51.136;14.942;2023-08-17T08:08:06;24.20;99.90
37446;DHT22;23307;51.136;14.942;2023-08-17T08:10:32;24.30;99.90
37446;DHT22;23307;51.136;14.942;2023-08-17T08:12:57;24.40;99.90
37446;DHT22;23307;51.136;14.942;2023-08-17T08:15:23;24.60;99.90
37446;DHT22;23307;51.136;14.942;2023-08-17T08:17:48;24.70;99.90
37446;DHT22;23307;51.136;14.942;2023-08-17T08:20:14;24.70;99.90
37446;DHT22;23307;51.136;14.942;2023-08-17T08:22:40;24.80;99.90
37446;DHT22;23307;51.136;14.942;2023-08-17T08:25:05;24.80;99.90
37446;DHT22;23307;51.136;14.942;2023-08-17T08:27:31;24.90;99.90
37446;DHT22;23307;51.136;14.942;2023-08-17T08:29:56;24.90;99.90
37446;DHT22;23307;51.136;14.942;2023-08-17T08:32:22;25.00;99.90
37446;DHT22;23307;51.136;14.942;2023-08-17T08:34:48;25.00;99.90
37446;DHT22;23307;51.136;14.942;2023-08-17T08:37:13;25.00;99.90
37446;DHT22;23307;51.136;14.942;2023-08-17T08:39:49;25.00;99.90
37446;DHT22;23307;51.136;14.942;2023-08-17T08:42:15;25.10;99.90
37446;DHT22;23307;51.136;14.942;2023-08-17T08:44:41;25.10;99.90
37446;DHT22;23307;51.136;14.942;2023-08-17T08:47:07;25.20;99.90
37446;DHT22;23307;51.136;14.942;2023-08-17T08:49:34;25.30;99.90
37446;DHT22;23307;51.136;14.942;2023-08-17T08:52:07;25.40;99.90
37446;DHT22;23307;51.136;14.942;2023-08-17T08:54:35;25.50;99.90
37446;DHT22;23307;51.136;14.942;2023-08-17T08:57:08;25.70;99.90
37446;DHT22;23307;51.136;14.942;2023-08-17T08:59:37;25.90;99.90
37446;DHT22;23307;51.136;14.942;2023-08-17T09:02:12;26.00;99.90
37446;DHT22;23307;51.136;14.942;2023-08-17T09:04:39;26.10;99.90
37446;DHT22;23307;51.136;14.942;2023-08-17T09:07:05;26.20;99.90
37446;DHT22;23307;51.136;14.942;2023-08-17T09:09:31;26.30;99.90
37446;DHT22;23307;51.136;14.942;2023-08-17T09:11:57;26.40;99.90
37446;DHT22;23307;51.136;14.942;2023-08-17T09:14:23;26.50;99.90
37446;DHT22;23307;51.136;14.942;2023-08-17T09:16:48;26.60;99.90
37446;DHT22;23307;51.136;14.942;2023-08-17T09:19:14;26.70;99.90
37446;DHT22;23307;51.136;14.942;2023-08-17T09:21:40;26.70;99.90
37446;DHT22;23307;51.136;14.942;2023-08-17T09:24:07;26.80;99.90
37446;DHT22;23307;51.136;14.942;2023-08-17T09:26:32;26.90;99.90
37446;DHT22;23307;51.136;14.942;2023-08-17T09:28:59;27.10;99.90
37446;DHT22;23307;51.136;14.942;2023-08-17T09:31:25;27.20;99.90
37446;DHT22;23307;51.136;14.942;2023-08-17T09:33:51;27.30;99.90
37446;DHT22;23307;51.136;14.942;2023-08-17T09:36:24;27.20;99.90
37446;DHT22;23307;51.136;14.942;2023-08-17T09:38:51;27.30;99.90
37446;DHT22;23307;51.136;14.942;2023-08-17T09:41:18;27.30;99.90
37446;DHT22;23307;51.136;14.942;2023-08-17T09:43:44;27.40;99.90
37446;DHT22;23307;51.136;14.942;2023-08-17T09:46:10;27.60;99.90
37446;DHT22;23307;51.136;14.942;2023-08-17T09:48:36;27.90;99.90
37446;DHT22;23307;51.136;14.942;2023-08-17T09:51:02;28.20;99.90
37446;DHT22;23307;51.136;14.942;2023-08-17T09:53:28;28.40;99.90
37446;DHT22;23307;51.136;14.942;2023-08-17T09:55:54;28.30;99.90
37446;DHT22;23307;51.136;14.942;2023-08-17T09:58:22;28.50;99.90
37446;DHT22;23307;51.136;14.942;2023-08-17T10:00:49;28.60;99.90
37446;DHT22;23307;51.136;14.942;2023-08-17T10:03:16;28.80;99.90
37446;DHT22;23307;51.136;14.942;2023-08-17T10:05:43;29.00;99.90
37446;DHT22;23307;51.136;14.942;2023-08-17T10:08:10;29.00;99.90
37446;DHT22;23307;51.136;14.942;2023-08-17T10:10:40;29.10;99.90
37446;DHT22;23307;51.136;14.942;2023-08-17T10:13:10;29.10;99.90
37446;DHT22;23307;51.136;14.942;2023-08-17T10:15:45;29.20;99.90
37446;DHT22;23307;51.136;14.942;2023-08-17T10:18:27;29.40;99.90
37446;DHT22;23307;51.136;14.942;2023-08-17T10:21:07;29.60;99.90
37446;DHT22;23307;51.136;14.942;2023-08-17T10:23:35;29.80;99.90
37446;DHT22;23307;51.136;14.942;2023-08-17T10:26:02;29.90;99.90
37446;DHT22;23307;51.136;14.942;2023-08-17T10:28:30;30.00;99.90
37446;DHT22;23307;51.136;14.942;2023-08-17T10:30:56;30.00;99.90
37446;DHT22;23307;51.136;14.942;2023-08-17T10:33:22;30.10;99.90
37446;DHT22;23307;51.136;14.942;2023-08-17T10:35:48;30.00;99.90
37446;DHT22;23307;51.136;14.942;2023-08-17T10:38:15;29.80;99.90
37446;DHT22;23307;51.136;14.942;2023-08-17T10:40:42;29.60;99.90
37446;DHT22;23307;51.136;14.942;2023-08-17T10:43:07;29.60;99.90
37446;DHT22;23307;51.136;14.942;2023-08-17T10:45:34;29.60;99.90
37446;DHT22;23307;51.136;14.942;2023-08-17T10:50:33;29.50;99.90
37446;DHT22;23307;51.136;14.942;2023-08-17T10:53:13;29.40;99.90
37446;DHT22;23307;51.136;14.942;2023-08-17T10:55:44;29.50;99.90
37446;DHT22;23307;51.136;14.942;2023-08-17T10:58:10;29.50;99.90
37446;DHT22;23307;51.136;14.942;2023-08-17T11:00:39;29.50;99.90
37446;DHT22;23307;51.136;14.942;2023-08-17T11:03:06;29.60;99.90
37446;DHT22;23307;51.136;14.942;2023-08-17T11:08:21;29.70;99.90
37446;DHT22;23307;51.136;14.942;2023-08-17T11:11:03;29.90;99.90
37446;DHT22;23307;51.136;14.942;2023-08-17T11:13:36;30.40;99.90
37446;DHT22;23307;51.136;14.942;2023-08-17T11:16:02;30.90;99.90
37446;DHT22;23307;51.136;14.942;2023-08-17T11:18:28;31.30;99.90
37446;DHT22;23307;51.136;14.942;2023-08-17T11:20:54;31.70;99.90
37446;DHT22;23307;51.136;14.942;2023-08-17T11:23:21;31.50;99.90
37446;DHT22;23307;51.136;14.942;2023-08-17T11:25:47;31.50;99.90
37446;DHT22;23307;51.136;14.942;2023-08-17T11:28:13;31.80;99.90
37446;DHT22;23307;51.136;14.942;2023-08-17T11:30:40;32.00;99.90
37446;DHT22;23307;51.136;14.942;2023-08-17T11:33:07;32.20;99.90
37446;DHT22;23307;51.136;14.942;2023-08-17T11:35:33;32.20;99.90
37446;DHT22;23307;51.136;14.942;2023-08-17T11:37:58;32.30;99.90
37446;DHT22;23307;51.136;14.942;2023-08-17T11:40:25;32.20;99.90
37446;DHT22;23307;51.136;14.942;2023-08-17T11:42:51;32.30;99.90
37446;DHT22;23307;51.136;14.942;2023-08-17T11:45:18;32.60;99.90
37446;DHT22;23307;51.136;14.942;2023-08-17T11:47:43;32.70;99.90
37446;DHT22;23307;51.136;14.942;2023-08-17T11:50:10;32.90;99.90
37446;DHT22;23307;51.136;14.942;2023-08-17T11:52:36;33.00;99.90
37446;DHT22;23307;51.136;14.942;2023-08-17T11:55:06;32.90;99.90
37446;DHT22;23307;51.136;14.942;2023-08-17T11:57:32;33.00;99.90
37446;DHT22;23307;51.136;14.942;2023-08-17T11:59:59;33.20;99.90
37446;DHT22;23307;51.136;14.942;2023-08-17T12:02:27;33.20;99.90
37446;DHT22;23307;51.136;14.942;2023-08-17T12:04:54;33.20;99.90
37446;DHT22;23307;51.136;14.942;2023-08-17T12:07:21;33.30;99.90
37446;DHT22;23307;51.136;14.942;2023-08-17T12:09:49;33.40;99.90
37446;DHT22;23307;51.136;14.942;2023-08-17T12:12:23;33.30;99.90
37446;DHT22;23307;51.136;14.942;2023-08-17T12:14:49;32.90;99.40
37446;DHT22;23307;51.136;14.942;2023-08-17T12:17:19;32.40;99.90
37446;DHT22;23307;51.136;14.942;2023-08-17T12:19:48;32.50;99.90
37446;DHT22;23307;51.136;14.942;2023-08-17T12:22:14;32.80;99.90
37446;DHT22;23307;51.136;14.942;2023-08-17T12:24:40;33.10;99.90
37446;DHT22;23307;51.136;14.942;2023-08-17T12:27:06;33.40;99.90
37446;DHT22;23307;51.136;14.942;2023-08-17T12:29:32;33.70;99.90
37446;DHT22;23307;51.136;14.942;2023-08-17T12:31:58;33.90;99.90
37446;DHT22;23307;51.136;14.942;2023-08-17T12:34:24;33.70;99.90
37446;DHT22;23307;51.136;14.942;2023-08-17T12:36:50;33.70;99.50
37446;DHT22;23307;51.136;14.942;2023-08-17T12:39:16;33.70;99.80
37446;DHT22;23307;51.136;14.942;2023-08-17T12:41:42;33.80;99.90
37446;DHT22;23307;51.136;14.942;2023-08-17T12:44:09;34.10;99.90
37446;DHT22;23307;51.136;14.942;2023-08-17T12:46:37;34.40;99.20
37446;DHT22;23307;51.136;14.942;2023-08-17T12:49:03;34.10;97.70
37446;DHT22;23307;51.136;14.942;2023-08-17T12:51:28;33.80;98.90
37446;DHT22;23307;51.136;14.942;2023-08-17T12:53:54;33.90;99.80
37446;DHT22;23307;51.136;14.942;2023-08-17T12:56:19;34.00;98.70
37446;DHT22;23307;51.136;14.942;2023-08-17T12:58:45;33.80;99.00
37446;DHT22;23307;51.136;14.942;2023-08-17T13:01:11;34.00;99.70
37446;DHT22;23307;51.136;14.942;2023-08-17T13:03:37;34.50;98.90
37446;DHT22;23307;51.136;14.942;2023-08-17T13:06:02;34.60;97.20
37446;DHT22;23307;51.136;14.942;2023-08-17T13:08:28;34.70;96.70
37446;DHT22;23307;51.136;14.942;2023-08-17T13:10:53;34.80;97.90
37446;DHT22;23307;51.136;14.942;2023-08-17T13:13:20;34.90;97.60
37446;DHT22;23307;51.136;14.942;2023-08-17T13:15:45;35.20;97.60
37446;DHT22;23307;51.136;14.942;2023-08-17T13:18:11;35.50;96.40
37446;DHT22;23307;51.136;14.942;2023-08-17T13:20:37;35.70;96.10
37446;DHT22;23307;51.136;14.942;2023-08-17T13:23:04;35.80;94.60
37446;DHT22;23307;51.136;14.942;2023-08-17T13:25:29;35.80;94.70
37446;DHT22;23307;51.136;14.942;2023-08-17T13:27:55;35.90;95.40
37446;DHT22;23307;51.136;14.942;2023-08-17T13:30:21;36.10;95.50
37446;DHT22;23307;51.136;14.942;2023-08-17T13:32:46;36.00;94.50
37446;DHT22;23307;51.136;14.942;2023-08-17T13:35:13;35.40;93.50
37446;DHT22;23307;51.136;14.942;2023-08-17T13:37:40;35.10;94.60
37446;DHT22;23307;51.136;14.942;2023-08-17T13:40:06;35.00;95.20
37446;DHT22;23307;51.136;14.942;2023-08-17T13:42:32;34.80;95.40
37446;DHT22;23307;51.136;14.942;2023-08-17T13:44:57;35.10;95.60
37446;DHT22;23307;51.136;14.942;2023-08-17T13:47:23;35.30;94.80
37446;DHT22;23307;51.136;14.942;2023-08-17T13:49:49;35.00;94.60
37446;DHT22;23307;51.136;14.942;2023-08-17T13:52:14;34.80;95.10
37446;DHT22;23307;51.136;14.942;2023-08-17T13:54:40;35.10;95.70
37446;DHT22;23307;51.136;14.942;2023-08-17T13:57:05;35.50;95.50
37446;DHT22;23307;51.136;14.942;2023-08-17T13:59:31;35.70;93.30
37446;DHT22;23307;51.136;14.942;2023-08-17T14:01:57;35.70;93.40
37446;DHT22;23307;51.136;14.942;2023-08-17T14:04:22;35.20;92.70
37446;DHT22;23307;51.136;14.942;2023-08-17T14:06:48;35.00;94.30
37446;DHT22;23307;51.136;14.942;2023-08-17T14:09:13;34.90;93.50
37446;DHT22;23307;51.136;14.942;2023-08-17T14:11:39;35.10;94.70
37446;DHT22;23307;51.136;14.942;2023-08-17T14:14:05;35.60;94.40
37446;DHT22;23307;51.136;14.942;2023-08-17T14:16:30;36.00;92.50
37446;DHT22;23307;51.136;14.942;2023-08-17T14:18:56;35.80;92.90
37446;DHT22;23307;51.136;14.942;2023-08-17T14:21:22;35.50;92.20
37446;DHT22;23307;51.136;14.942;2023-08-17T14:23:47;35.20;93.10
37446;DHT22;23307;51.136;14.942;2023-08-17T14:26:13;35.40;93.50
37446;DHT22;23307;51.136;14.942;2023-08-17T14:28:38;35.50;93.10
37446;DHT22;23307;51.136;14.942;2023-08-17T14:31:04;35.40;92.60
37446;DHT22;23307;51.136;14.942;2023-08-17T14:33:29;35.50;93.20
37446;DHT22;23307;51.136;14.942;2023-08-17T14:35:55;35.60;92.10
37446;DHT22;23307;51.136;14.942;2023-08-17T14:38:20;35.50;91.90
37446;DHT22;23307;51.136;14.942;2023-08-17T14:40:47;35.50;93.00
37446;DHT22;23307;51.136;14.942;2023-08-17T14:43:13;35.50;92.40
37446;DHT22;23307;51.136;14.942;2023-08-17T14:45:40;35.00;92.10
37446;DHT22;23307;51.136;14.942;2023-08-17T14:48:06;34.60;93.00
37446;DHT22;23307;51.136;14.942;2023-08-17T14:50:36;34.70;93.70
37446;DHT22;23307;51.136;14.942;2023-08-17T14:53:02;35.00;93.20
37446;DHT22;23307;51.136;14.942;2023-08-17T14:55:29;35.40;93.20
37446;DHT22;23307;51.136;14.942;2023-08-17T14:57:55;35.30;92.00
37446;DHT22;23307;51.136;14.942;2023-08-17T15:00:22;35.20;91.60
37446;DHT22;23307;51.136;14.942;2023-08-17T15:02:48;35.20;91.80
37446;DHT22;23307;51.136;14.942;2023-08-17T15:05:14;35.20;92.10
37446;DHT22;23307;51.136;14.942;2023-08-17T15:07:40;35.20;92.20
37446;DHT22;23307;51.136;14.942;2023-08-17T15:10:06;35.20;92.00
37446;DHT22;23307;51.136;14.942;2023-08-17T15:12:31;34.90;92.10
37446;DHT22;23307;51.136;14.942;2023-08-17T15:14:57;35.10;92.40
37446;DHT22;23307;51.136;14.942;2023-08-17T15:17:22;35.00;91.80
37446;DHT22;23307;51.136;14.942;2023-08-17T15:19:48;34.80;91.60